CES5852 ZSHC-ZBTJ
Flight info
| Callsign | CES5852 |
|---|---|
| Flight time | 1h 39m |
| Altitude | 32100 |
| Route | NIVK3F NIVIK W135 DOGVI A470 DPX A593 DALIM W142 YQG W569 NOBUP DCT DUMAP DUMA7K |
| Aircraft | A320/M-SDE3FGHILORWXY/LB1 |
Departure
| Time | 2026-04-24 03:13 |
|---|---|
| Airport | Hangzhou Xiaoshan International Airport (ZSHC) |
Arrival
| Time | 2026-04-24 04:53 |
|---|---|
| Airport | Tianjin Binhai International Airport (ZBTJ) |
| Time | Latitude | Longitude | Altitude | Speed | Heading |
|---|---|---|---|---|---|
| 2026-04-24 02:54 | 30.24005 | 120.42492 | 32 ft | 0 kts | 223° |
| 2026-04-24 03:01 | 30.24005 | 120.42493 | 32 ft | 0 kts | 223° |
| 2026-04-24 03:04 | 30.24015 | 120.42502 | 31 ft | 2 kts | 222° |
| 2026-04-24 03:04 | 30.24028 | 120.42515 | 30 ft | 2 kts | 227° |
| 2026-04-24 03:04 | 30.24035 | 120.42532 | 31 ft | 2 kts | 276° |
| 2026-04-24 03:04 | 30.24030 | 120.42550 | 29 ft | 2 kts | 314° |
| 2026-04-24 03:05 | 30.24022 | 120.42558 | 30 ft | 1 kts | 333° |
| 2026-04-24 03:05 | 30.24022 | 120.42559 | 28 ft | 0 kts | 334° |
| 2026-04-24 03:07 | 30.24030 | 120.42555 | 31 ft | 4 kts | 336° |
| 2026-04-24 03:07 | 30.24056 | 120.42544 | 32 ft | 3 kts | 339° |
| 2026-04-24 03:07 | 30.24070 | 120.42533 | 30 ft | 3 kts | 325° |
| 2026-04-24 03:07 | 30.24116 | 120.42499 | 32 ft | 12 kts | 335° |
| 2026-04-24 03:08 | 30.24200 | 120.42472 | 32 ft | 13 kts | 346° |
| 2026-04-24 03:08 | 30.24289 | 120.42323 | 31 ft | 17 kts | 243° |
| 2026-04-24 03:08 | 30.24224 | 120.42175 | 32 ft | 24 kts | 243° |
| 2026-04-24 03:09 | 30.24139 | 120.41985 | 32 ft | 27 kts | 243° |
| 2026-04-24 03:09 | 30.24050 | 120.41784 | 32 ft | 28 kts | 243° |
| 2026-04-24 03:09 | 30.23959 | 120.41577 | 32 ft | 29 kts | 243° |
| 2026-04-24 03:09 | 30.23866 | 120.41368 | 32 ft | 29 kts | 243° |
| 2026-04-24 03:10 | 30.23773 | 120.41156 | 32 ft | 29 kts | 243° |
| 2026-04-24 03:10 | 30.23692 | 120.40973 | 32 ft | 13 kts | 243° |
| 2026-04-24 03:10 | 30.23709 | 120.40914 | 33 ft | 7 kts | 322° |
| 2026-04-24 03:10 | 30.23745 | 120.40891 | 33 ft | 5 kts | 332° |
| 2026-04-24 03:11 | 30.23765 | 120.40879 | 34 ft | 2 kts | 332° |
| 2026-04-24 03:11 | 30.23770 | 120.40876 | 34 ft | 0 kts | 332° |
| 2026-04-24 03:12 | 30.23783 | 120.40868 | 34 ft | 9 kts | 332° |
| 2026-04-24 03:12 | 30.23828 | 120.40846 | 34 ft | 2 kts | 5° |
| 2026-04-24 03:12 | 30.23830 | 120.40853 | 34 ft | 0 kts | 62° |
| 2026-04-24 03:12 | 30.23841 | 120.40878 | 34 ft | 19 kts | 62° |
| 2026-04-24 03:13 | 30.24027 | 120.41296 | 32 ft | 93 kts | 63° |
| 2026-04-24 03:13 | 30.24412 | 120.42166 | 32 ft | 148 kts | 63° |
| 2026-04-24 03:13 | 30.24928 | 120.43321 | 396 ft | 161 kts | 60° |
| 2026-04-24 03:13 | 30.25447 | 120.44485 | 1113 ft | 163 kts | 61° |
| 2026-04-24 03:14 | 30.25984 | 120.45698 | 1624 ft | 179 kts | 62° |
| 2026-04-24 03:14 | 30.26584 | 120.47055 | 1959 ft | 200 kts | 62° |
| 2026-04-24 03:14 | 30.27237 | 120.48527 | 2505 ft | 208 kts | 61° |
| 2026-04-24 03:14 | 30.27900 | 120.50024 | 3196 ft | 211 kts | 62° |
| 2026-04-24 03:15 | 30.28572 | 120.51542 | 3990 ft | 213 kts | 62° |
| 2026-04-24 03:15 | 30.29250 | 120.53078 | 4761 ft | 216 kts | 62° |
| 2026-04-24 03:15 | 30.29937 | 120.54635 | 5481 ft | 219 kts | 62° |
| 2026-04-24 03:15 | 30.30634 | 120.56214 | 6225 ft | 221 kts | 62° |
| 2026-04-24 03:16 | 30.31339 | 120.57808 | 6928 ft | 224 kts | 62° |
| 2026-04-24 03:16 | 30.32056 | 120.59427 | 7593 ft | 228 kts | 60° |
| 2026-04-24 03:16 | 30.33027 | 120.60879 | 7846 ft | 229 kts | 36° |
| 2026-04-24 03:16 | 30.34447 | 120.61671 | 8180 ft | 229 kts | 9° |
| 2026-04-24 03:17 | 30.36033 | 120.61691 | 8916 ft | 230 kts | 346° |
| 2026-04-24 03:17 | 30.37484 | 120.60941 | 9599 ft | 232 kts | 321° |
| 2026-04-24 03:17 | 30.38523 | 120.59517 | 10270 ft | 234 kts | 296° |
| 2026-04-24 03:17 | 30.38927 | 120.57725 | 10925 ft | 236 kts | 271° |
| 2026-04-24 03:18 | 30.38612 | 120.55864 | 11615 ft | 239 kts | 247° |
| 2026-04-24 03:18 | 30.37854 | 120.54152 | 12334 ft | 239 kts | 245° |
| 2026-04-24 03:18 | 30.37085 | 120.52451 | 13061 ft | 238 kts | 245° |
| 2026-04-24 03:18 | 30.36319 | 120.50752 | 13803 ft | 238 kts | 246° |
| 2026-04-24 03:19 | 30.35555 | 120.49052 | 14468 ft | 238 kts | 246° |
| 2026-04-24 03:19 | 30.34795 | 120.47352 | 15117 ft | 238 kts | 246° |
| 2026-04-24 03:19 | 30.34018 | 120.45605 | 15439 ft | 254 kts | 246° |
| 2026-04-24 03:19 | 30.33195 | 120.43738 | 15809 ft | 265 kts | 246° |
| 2026-04-24 03:20 | 30.32350 | 120.41826 | 16404 ft | 268 kts | 246° |
| 2026-04-24 03:20 | 30.31498 | 120.39900 | 17060 ft | 269 kts | 246° |
| 2026-04-24 03:20 | 30.30642 | 120.37971 | 17734 ft | 270 kts | 246° |
| 2026-04-24 03:20 | 30.29783 | 120.36038 | 18400 ft | 271 kts | 246° |
| 2026-04-24 03:21 | 30.28921 | 120.34094 | 18983 ft | 271 kts | 247° |
| 2026-04-24 03:21 | 30.28062 | 120.32154 | 19581 ft | 271 kts | 247° |
| 2026-04-24 03:21 | 30.27230 | 120.30201 | 20169 ft | 269 kts | 253° |
| 2026-04-24 03:21 | 30.26981 | 120.28095 | 20721 ft | 266 kts | 277° |
| 2026-04-24 03:22 | 30.27618 | 120.26068 | 21132 ft | 280 kts | 300° |
| 2026-04-24 03:22 | 30.29148 | 120.24526 | 21262 ft | 310 kts | 323° |
| 2026-04-24 03:22 | 30.31110 | 120.23324 | 21394 ft | 327 kts | 325° |
| 2026-04-24 03:22 | 30.33192 | 120.22115 | 21526 ft | 342 kts | 327° |
| 2026-04-24 03:23 | 30.35414 | 120.20948 | 21654 ft | 358 kts | 329° |
| 2026-04-24 03:23 | 30.37717 | 120.19819 | 21787 ft | 371 kts | 329° |
| 2026-04-24 03:23 | 30.40144 | 120.18657 | 21917 ft | 383 kts | 330° |
| 2026-04-24 03:23 | 30.42644 | 120.17454 | 22050 ft | 394 kts | 330° |
| 2026-04-24 03:24 | 30.45207 | 120.16205 | 22198 ft | 404 kts | 329° |
| 2026-04-24 03:24 | 30.47786 | 120.14879 | 22508 ft | 405 kts | 325° |
| 2026-04-24 03:24 | 30.50152 | 120.13152 | 22890 ft | 400 kts | 317° |
| 2026-04-24 03:24 | 30.52409 | 120.11243 | 23303 ft | 402 kts | 317° |
| 2026-04-24 03:25 | 30.54672 | 120.09324 | 23711 ft | 404 kts | 317° |
| 2026-04-24 03:25 | 30.56941 | 120.07402 | 24057 ft | 405 kts | 317° |
| 2026-04-24 03:25 | 30.59224 | 120.05469 | 24402 ft | 407 kts | 316° |
| 2026-04-24 03:25 | 30.61518 | 120.03527 | 24726 ft | 409 kts | 316° |
| 2026-04-24 03:26 | 30.63823 | 120.01575 | 25048 ft | 411 kts | 316° |
| 2026-04-24 03:26 | 30.66140 | 119.99608 | 25365 ft | 413 kts | 316° |
| 2026-04-24 03:26 | 30.68464 | 119.97633 | 25683 ft | 415 kts | 316° |
| 2026-04-24 03:26 | 30.70797 | 119.95647 | 25997 ft | 417 kts | 316° |
| 2026-04-24 03:27 | 30.73141 | 119.93650 | 26305 ft | 418 kts | 316° |
| 2026-04-24 03:27 | 30.75494 | 119.91647 | 26611 ft | 420 kts | 316° |
| 2026-04-24 03:27 | 30.77854 | 119.89640 | 26880 ft | 421 kts | 315° |
| 2026-04-24 03:27 | 30.80222 | 119.87619 | 27171 ft | 423 kts | 315° |
| 2026-04-24 03:28 | 30.82565 | 119.85609 | 27447 ft | 424 kts | 315° |
| 2026-04-24 03:28 | 30.84973 | 119.83536 | 27725 ft | 426 kts | 315° |
| 2026-04-24 03:28 | 30.87355 | 119.81488 | 28119 ft | 424 kts | 315° |
| 2026-04-24 03:28 | 30.89724 | 119.79453 | 28564 ft | 422 kts | 314° |
| 2026-04-24 03:29 | 30.92051 | 119.77454 | 28995 ft | 420 kts | 314° |
| 2026-04-24 03:29 | 30.93635 | 119.76093 | 29293 ft | 419 kts | 314° |
| 2026-04-24 03:29 | 30.96730 | 119.73431 | 29851 ft | 416 kts | 314° |
| 2026-04-24 03:29 | 30.99051 | 119.71430 | 30281 ft | 414 kts | 313° |
| 2026-04-24 03:30 | 31.01358 | 119.69437 | 30619 ft | 412 kts | 313° |
| 2026-04-24 03:30 | 31.03658 | 119.67446 | 30934 ft | 411 kts | 313° |
| 2026-04-24 03:30 | 31.05209 | 119.66102 | 31123 ft | 411 kts | 313° |
| 2026-04-24 03:30 | 31.07502 | 119.64118 | 31460 ft | 409 kts | 313° |
| 2026-04-24 03:31 | 31.09788 | 119.62144 | 31802 ft | 408 kts | 312° |
| 2026-04-24 03:31 | 31.12065 | 119.60177 | 32123 ft | 408 kts | 312° |
| 2026-04-24 03:31 | 31.14346 | 119.58206 | 32209 ft | 409 kts | 312° |
| 2026-04-24 03:32 | 31.18889 | 119.54268 | 32212 ft | 410 kts | 312° |
| 2026-04-24 03:32 | 31.23465 | 119.50297 | 32221 ft | 409 kts | 312° |
| 2026-04-24 03:33 | 31.28034 | 119.46324 | 32217 ft | 409 kts | 312° |
| 2026-04-24 03:33 | 31.32603 | 119.42353 | 32216 ft | 410 kts | 312° |
| 2026-04-24 03:34 | 31.37173 | 119.38378 | 32223 ft | 409 kts | 313° |
| 2026-04-24 03:34 | 31.41743 | 119.34400 | 32220 ft | 409 kts | 313° |
| 2026-04-24 03:35 | 31.46309 | 119.30411 | 32223 ft | 409 kts | 313° |
| 2026-04-24 03:35 | 31.50875 | 119.26416 | 32220 ft | 410 kts | 313° |
| 2026-04-24 03:36 | 31.55445 | 119.22418 | 32217 ft | 410 kts | 313° |
| 2026-04-24 03:36 | 31.59980 | 119.18423 | 32218 ft | 410 kts | 313° |
| 2026-04-24 03:37 | 31.64529 | 119.14371 | 32212 ft | 410 kts | 312° |
| 2026-04-24 03:37 | 31.68882 | 119.10091 | 32214 ft | 407 kts | 309° |
| 2026-04-24 03:38 | 31.73092 | 119.05647 | 32206 ft | 407 kts | 309° |
| 2026-04-24 03:38 | 31.77327 | 119.01213 | 32202 ft | 409 kts | 310° |
| 2026-04-24 03:39 | 31.81735 | 118.96940 | 32203 ft | 419 kts | 318° |
| 2026-04-24 03:39 | 31.84364 | 118.95339 | 32200 ft | 433 kts | 328° |
| 2026-04-24 03:39 | 31.87192 | 118.94083 | 32201 ft | 435 kts | 329° |
| 2026-04-24 03:40 | 31.92851 | 118.91559 | 32204 ft | 435 kts | 329° |
| 2026-04-24 03:40 | 31.98525 | 118.89016 | 32205 ft | 436 kts | 329° |
| 2026-04-24 03:41 | 32.04204 | 118.86467 | 32209 ft | 437 kts | 330° |
| 2026-04-24 03:41 | 32.09886 | 118.83898 | 32209 ft | 438 kts | 330° |
| 2026-04-24 03:42 | 32.15576 | 118.81325 | 32212 ft | 438 kts | 330° |
| 2026-04-24 03:42 | 32.21233 | 118.78764 | 32214 ft | 438 kts | 330° |
| 2026-04-24 03:43 | 32.26931 | 118.76184 | 32208 ft | 439 kts | 330° |
| 2026-04-24 03:43 | 32.32641 | 118.73612 | 32207 ft | 439 kts | 331° |
| 2026-04-24 03:44 | 32.38351 | 118.71032 | 32203 ft | 439 kts | 331° |
| 2026-04-24 03:44 | 32.44060 | 118.68438 | 32204 ft | 440 kts | 331° |
| 2026-04-24 03:45 | 32.49778 | 118.65842 | 32204 ft | 440 kts | 331° |
| 2026-04-24 03:45 | 32.55499 | 118.63241 | 32203 ft | 441 kts | 332° |
| 2026-04-24 03:46 | 32.61229 | 118.60624 | 32207 ft | 442 kts | 332° |
| 2026-04-24 03:46 | 32.66963 | 118.58008 | 32204 ft | 442 kts | 332° |
| 2026-04-24 03:47 | 32.72825 | 118.55671 | 32199 ft | 446 kts | 336° |
| 2026-04-24 03:47 | 32.78809 | 118.53643 | 32199 ft | 448 kts | 338° |
| 2026-04-24 03:48 | 32.84798 | 118.51614 | 32198 ft | 447 kts | 337° |
| 2026-04-24 03:48 | 32.90754 | 118.49503 | 32205 ft | 447 kts | 336° |
| 2026-04-24 03:49 | 32.96704 | 118.47353 | 32205 ft | 447 kts | 337° |
| 2026-04-24 03:49 | 33.02614 | 118.45223 | 32205 ft | 447 kts | 337° |
| 2026-04-24 03:50 | 33.08565 | 118.43088 | 32204 ft | 447 kts | 337° |
| 2026-04-24 03:50 | 33.14515 | 118.40946 | 32203 ft | 446 kts | 337° |
| 2026-04-24 03:51 | 33.20458 | 118.38796 | 32205 ft | 446 kts | 337° |
| 2026-04-24 03:51 | 33.26402 | 118.36644 | 32201 ft | 446 kts | 338° |
| 2026-04-24 03:52 | 33.32347 | 118.34506 | 32201 ft | 446 kts | 338° |
| 2026-04-24 03:52 | 33.38294 | 118.32371 | 32198 ft | 446 kts | 338° |
| 2026-04-24 03:53 | 33.44235 | 118.30227 | 32197 ft | 445 kts | 338° |
| 2026-04-24 03:53 | 33.50168 | 118.28079 | 32193 ft | 445 kts | 338° |
| 2026-04-24 03:54 | 33.56094 | 118.25928 | 32195 ft | 445 kts | 338° |
| 2026-04-24 03:54 | 33.61979 | 118.23792 | 32194 ft | 445 kts | 338° |
| 2026-04-24 03:55 | 33.67896 | 118.21642 | 32193 ft | 444 kts | 338° |
| 2026-04-24 03:55 | 33.73814 | 118.19495 | 32188 ft | 444 kts | 338° |
| 2026-04-24 03:56 | 33.79728 | 118.17340 | 32183 ft | 444 kts | 338° |
| 2026-04-24 03:56 | 33.85640 | 118.15183 | 32178 ft | 444 kts | 339° |
| 2026-04-24 03:57 | 33.91555 | 118.13029 | 32179 ft | 444 kts | 339° |
| 2026-04-24 03:57 | 33.97468 | 118.10876 | 32175 ft | 444 kts | 339° |
| 2026-04-24 03:58 | 34.03382 | 118.08725 | 32174 ft | 444 kts | 339° |
| 2026-04-24 03:58 | 34.09296 | 118.06576 | 32171 ft | 444 kts | 339° |
| 2026-04-24 03:59 | 34.15213 | 118.04430 | 32166 ft | 444 kts | 339° |
| 2026-04-24 03:59 | 34.21132 | 118.02275 | 32169 ft | 444 kts | 339° |
| 2026-04-24 04:00 | 34.27007 | 118.00138 | 32169 ft | 444 kts | 339° |
| 2026-04-24 04:00 | 34.32932 | 117.97996 | 32160 ft | 444 kts | 340° |
| 2026-04-24 04:01 | 34.38868 | 117.95889 | 32162 ft | 445 kts | 340° |
| 2026-04-24 04:01 | 34.44810 | 117.93780 | 32157 ft | 445 kts | 340° |
| 2026-04-24 04:02 | 34.50743 | 117.91655 | 32158 ft | 445 kts | 340° |
| 2026-04-24 04:02 | 34.56678 | 117.89529 | 32160 ft | 445 kts | 338° |
| 2026-04-24 04:03 | 34.62616 | 117.87400 | 32150 ft | 445 kts | 340° |
| 2026-04-24 04:03 | 34.68555 | 117.85265 | 32163 ft | 445 kts | 340° |
| 2026-04-24 04:04 | 34.74500 | 117.83129 | 32153 ft | 445 kts | 340° |
| 2026-04-24 04:04 | 34.80440 | 117.80991 | 32151 ft | 445 kts | 340° |
| 2026-04-24 04:05 | 34.86376 | 117.78827 | 32156 ft | 445 kts | 340° |
| 2026-04-24 04:05 | 34.92272 | 117.76663 | 32151 ft | 446 kts | 340° |
| 2026-04-24 04:06 | 34.98210 | 117.74494 | 32154 ft | 446 kts | 340° |
| 2026-04-24 04:06 | 35.04152 | 117.72319 | 32149 ft | 446 kts | 340° |
| 2026-04-24 04:07 | 35.10095 | 117.70138 | 32152 ft | 446 kts | 340° |
| 2026-04-24 04:07 | 35.15827 | 117.68035 | 32146 ft | 446 kts | 340° |
| 2026-04-24 04:08 | 35.21772 | 117.65853 | 32145 ft | 446 kts | 340° |
| 2026-04-24 04:08 | 35.27724 | 117.63671 | 32144 ft | 447 kts | 340° |
| 2026-04-24 04:09 | 35.33676 | 117.61484 | 32143 ft | 447 kts | 340° |
| 2026-04-24 04:09 | 35.39633 | 117.59284 | 32138 ft | 447 kts | 340° |
| 2026-04-24 04:10 | 35.45589 | 117.57072 | 32135 ft | 447 kts | 340° |
| 2026-04-24 04:10 | 35.51550 | 117.54863 | 32136 ft | 448 kts | 340° |
| 2026-04-24 04:11 | 35.60501 | 117.51539 | 32137 ft | 448 kts | 340° |
| 2026-04-24 04:11 | 35.66436 | 117.49329 | 32133 ft | 449 kts | 340° |
| 2026-04-24 04:12 | 35.72412 | 117.47110 | 32137 ft | 449 kts | 340° |
| 2026-04-24 04:12 | 35.78397 | 117.44881 | 32136 ft | 449 kts | 340° |
| 2026-04-24 04:13 | 35.84382 | 117.42646 | 32131 ft | 449 kts | 340° |
| 2026-04-24 04:13 | 35.90366 | 117.40408 | 32127 ft | 449 kts | 340° |
| 2026-04-24 04:14 | 35.96353 | 117.38169 | 32127 ft | 450 kts | 340° |
| 2026-04-24 04:14 | 36.02341 | 117.35931 | 32132 ft | 450 kts | 340° |
| 2026-04-24 04:15 | 36.08350 | 117.33711 | 32122 ft | 450 kts | 341° |
| 2026-04-24 04:15 | 36.14352 | 117.31495 | 32124 ft | 450 kts | 341° |
| 2026-04-24 04:16 | 36.19264 | 117.29665 | 32118 ft | 450 kts | 340° |
| 2026-04-24 04:16 | 36.25281 | 117.27434 | 32115 ft | 451 kts | 341° |
| 2026-04-24 04:17 | 36.31291 | 117.25214 | 32110 ft | 451 kts | 341° |
| 2026-04-24 04:17 | 36.37314 | 117.22976 | 32113 ft | 452 kts | 341° |
| 2026-04-24 04:18 | 36.43472 | 117.21375 | 32107 ft | 456 kts | 354° |
| 2026-04-24 04:18 | 36.49830 | 117.21361 | 32102 ft | 457 kts | 358° |
| 2026-04-24 04:19 | 36.55121 | 117.21405 | 32099 ft | 458 kts | 358° |
| 2026-04-24 04:19 | 36.62529 | 117.21465 | 32093 ft | 457 kts | 358° |
| 2026-04-24 04:20 | 36.68898 | 117.21511 | 32087 ft | 458 kts | 358° |
| 2026-04-24 04:20 | 36.69743 | 117.21516 | 32080 ft | 458 kts | 358° |
| 2026-04-24 04:22 | 36.71787 | 117.21517 | 32085 ft | 458 kts | 357° |
| 2026-04-24 04:23 | 36.78160 | 117.21544 | 32079 ft | 458 kts | 358° |
| 2026-04-24 04:23 | 36.84524 | 117.22183 | 32079 ft | 463 kts | 10° |
| 2026-04-24 04:24 | 36.90718 | 117.24472 | 32078 ft | 464 kts | 14° |
| 2026-04-24 04:24 | 36.96900 | 117.26835 | 32076 ft | 465 kts | 14° |
| 2026-04-24 04:25 | 37.03088 | 117.29196 | 32073 ft | 465 kts | 14° |
| 2026-04-24 04:25 | 37.09278 | 117.31572 | 32075 ft | 465 kts | 15° |
| 2026-04-24 04:26 | 37.15422 | 117.33945 | 32072 ft | 465 kts | 15° |
| 2026-04-24 04:26 | 37.21603 | 117.36323 | 32069 ft | 464 kts | 15° |
| 2026-04-24 04:27 | 37.27783 | 117.38698 | 32069 ft | 464 kts | 15° |
| 2026-04-24 04:27 | 37.33959 | 117.41087 | 32070 ft | 464 kts | 15° |
| 2026-04-24 04:28 | 37.40078 | 117.43698 | 32065 ft | 465 kts | 19° |
| 2026-04-24 04:28 | 37.46087 | 117.46712 | 32073 ft | 465 kts | 20° |
| 2026-04-24 04:29 | 37.52081 | 117.49779 | 32070 ft | 465 kts | 20° |
| 2026-04-24 04:29 | 37.58105 | 117.52758 | 32060 ft | 465 kts | 19° |
| 2026-04-24 04:30 | 37.64143 | 117.55685 | 32058 ft | 465 kts | 19° |
| 2026-04-24 04:30 | 37.70181 | 117.58627 | 32059 ft | 465 kts | 19° |
| 2026-04-24 04:31 | 37.76212 | 117.61599 | 32066 ft | 465 kts | 19° |
| 2026-04-24 04:31 | 37.82208 | 117.64561 | 32066 ft | 465 kts | 19° |
| 2026-04-24 04:32 | 37.88233 | 117.67531 | 31826 ft | 465 kts | 19° |
| 2026-04-24 04:32 | 37.91249 | 117.69018 | 31570 ft | 464 kts | 19° |
| 2026-04-24 04:32 | 37.94258 | 117.70504 | 31319 ft | 464 kts | 19° |
| 2026-04-24 04:33 | 37.97266 | 117.71995 | 31069 ft | 464 kts | 19° |
| 2026-04-24 04:33 | 38.00270 | 117.73487 | 30819 ft | 464 kts | 19° |
| 2026-04-24 04:33 | 38.03280 | 117.74981 | 30578 ft | 464 kts | 19° |
| 2026-04-24 04:33 | 38.06285 | 117.76470 | 30328 ft | 464 kts | 19° |
| 2026-04-24 04:34 | 38.09289 | 117.77959 | 30085 ft | 463 kts | 19° |
| 2026-04-24 04:34 | 38.12291 | 117.79451 | 29813 ft | 463 kts | 19° |
| 2026-04-24 04:34 | 38.15295 | 117.80945 | 29528 ft | 464 kts | 20° |
| 2026-04-24 04:34 | 38.18298 | 117.82440 | 29251 ft | 464 kts | 20° |
| 2026-04-24 04:35 | 38.21302 | 117.83938 | 28961 ft | 464 kts | 20° |
| 2026-04-24 04:35 | 38.24316 | 117.85445 | 28685 ft | 465 kts | 20° |
| 2026-04-24 04:35 | 38.27327 | 117.86950 | 28415 ft | 465 kts | 20° |
| 2026-04-24 04:35 | 38.30347 | 117.88458 | 28139 ft | 466 kts | 20° |
| 2026-04-24 04:36 | 38.33362 | 117.89964 | 27873 ft | 466 kts | 20° |
| 2026-04-24 04:36 | 38.36385 | 117.91477 | 27595 ft | 467 kts | 20° |
| 2026-04-24 04:36 | 38.39411 | 117.92993 | 27341 ft | 468 kts | 20° |
| 2026-04-24 04:36 | 38.42442 | 117.94511 | 27079 ft | 468 kts | 20° |
| 2026-04-24 04:37 | 38.45466 | 117.96025 | 26308 ft | 467 kts | 20° |
| 2026-04-24 04:37 | 38.48514 | 117.97555 | 25065 ft | 473 kts | 20° |
| 2026-04-24 04:37 | 38.51587 | 117.99099 | 24033 ft | 474 kts | 20° |
| 2026-04-24 04:37 | 38.54674 | 118.00511 | 23146 ft | 469 kts | 13° |
| 2026-04-24 04:38 | 38.57846 | 118.01270 | 22307 ft | 460 kts | 4° |
| 2026-04-24 04:38 | 38.61018 | 118.01341 | 21544 ft | 452 kts | 354° |
| 2026-04-24 04:38 | 38.64061 | 118.00771 | 20807 ft | 445 kts | 345° |
| 2026-04-24 04:38 | 38.67004 | 117.99647 | 20077 ft | 439 kts | 341° |
| 2026-04-24 04:39 | 38.69889 | 117.98436 | 19369 ft | 435 kts | 341° |
| 2026-04-24 04:39 | 38.72747 | 117.97234 | 18682 ft | 430 kts | 341° |
| 2026-04-24 04:39 | 38.75579 | 117.96043 | 17969 ft | 427 kts | 341° |
| 2026-04-24 04:39 | 38.78383 | 117.94866 | 17284 ft | 421 kts | 341° |
| 2026-04-24 04:40 | 38.81147 | 117.93685 | 16668 ft | 415 kts | 340° |
| 2026-04-24 04:40 | 38.83860 | 117.92496 | 16052 ft | 409 kts | 340° |
| 2026-04-24 04:40 | 38.86534 | 117.91308 | 15487 ft | 404 kts | 340° |
| 2026-04-24 04:40 | 38.89171 | 117.90134 | 14924 ft | 398 kts | 340° |
| 2026-04-24 04:41 | 38.91771 | 117.88979 | 14376 ft | 393 kts | 340° |
| 2026-04-24 04:41 | 38.94345 | 117.87839 | 13827 ft | 389 kts | 340° |
| 2026-04-24 04:41 | 38.96894 | 117.86713 | 13228 ft | 386 kts | 340° |
| 2026-04-24 04:41 | 38.99420 | 117.85601 | 12634 ft | 381 kts | 340° |
| 2026-04-24 04:42 | 39.01916 | 117.84501 | 12042 ft | 378 kts | 339° |
| 2026-04-24 04:42 | 39.04278 | 117.83094 | 11423 ft | 372 kts | 326° |
| 2026-04-24 04:42 | 39.06227 | 117.80968 | 11050 ft | 361 kts | 310° |
| 2026-04-24 04:42 | 39.07634 | 117.78399 | 10918 ft | 343 kts | 297° |
| 2026-04-24 04:43 | 39.08483 | 117.75612 | 10790 ft | 328 kts | 284° |
| 2026-04-24 04:43 | 39.08796 | 117.72772 | 10669 ft | 315 kts | 274° |
| 2026-04-24 04:43 | 39.08933 | 117.70013 | 10546 ft | 304 kts | 274° |
| 2026-04-24 04:43 | 39.09067 | 117.67342 | 10424 ft | 294 kts | 274° |
| 2026-04-24 04:44 | 39.09201 | 117.64759 | 10276 ft | 286 kts | 274° |
| 2026-04-24 04:44 | 39.09333 | 117.62229 | 10147 ft | 281 kts | 274° |
| 2026-04-24 04:44 | 39.09462 | 117.59729 | 10088 ft | 280 kts | 274° |
| 2026-04-24 04:44 | 39.09592 | 117.57233 | 9989 ft | 279 kts | 274° |
| 2026-04-24 04:45 | 39.09723 | 117.54713 | 9533 ft | 284 kts | 274° |
| 2026-04-24 04:45 | 39.10036 | 117.52235 | 9238 ft | 280 kts | 289° |
| 2026-04-24 04:45 | 39.10993 | 117.50072 | 8898 ft | 280 kts | 309° |
| 2026-04-24 04:45 | 39.12511 | 117.48507 | 8520 ft | 283 kts | 330° |
| 2026-04-24 04:46 | 39.14346 | 117.47672 | 8152 ft | 285 kts | 341° |
| 2026-04-24 04:46 | 39.16277 | 117.46956 | 7784 ft | 285 kts | 340° |
| 2026-04-24 04:46 | 39.18153 | 117.46260 | 7440 ft | 284 kts | 340° |
| 2026-04-24 04:46 | 39.20045 | 117.45547 | 7119 ft | 282 kts | 338° |
| 2026-04-24 04:47 | 39.21812 | 117.44515 | 6764 ft | 278 kts | 329° |
| 2026-04-24 04:47 | 39.23548 | 117.43377 | 6164 ft | 282 kts | 329° |
| 2026-04-24 04:47 | 39.25309 | 117.42225 | 5394 ft | 284 kts | 329° |
| 2026-04-24 04:47 | 39.27058 | 117.41086 | 4934 ft | 275 kts | 330° |
| 2026-04-24 04:48 | 39.28548 | 117.39925 | 4773 ft | 251 kts | 310° |
| 2026-04-24 04:48 | 39.29377 | 117.38160 | 4631 ft | 226 kts | 282° |
| 2026-04-24 04:48 | 39.29406 | 117.36203 | 4272 ft | 217 kts | 254° |
| 2026-04-24 04:48 | 39.29034 | 117.34345 | 3943 ft | 212 kts | 253° |
| 2026-04-24 04:49 | 39.28664 | 117.32526 | 3614 ft | 206 kts | 253° |
| 2026-04-24 04:49 | 39.28301 | 117.30746 | 3336 ft | 204 kts | 251° |
| 2026-04-24 04:49 | 39.27622 | 117.29217 | 3035 ft | 197 kts | 215° |
| 2026-04-24 04:49 | 39.26329 | 117.28757 | 2725 ft | 200 kts | 172° |
| 2026-04-24 04:50 | 39.25026 | 117.29408 | 2436 ft | 201 kts | 157° |
| 2026-04-24 04:50 | 39.23828 | 117.30234 | 2127 ft | 192 kts | 155° |
| 2026-04-24 04:50 | 39.22649 | 117.31015 | 1849 ft | 187 kts | 157° |
| 2026-04-24 04:50 | 39.21525 | 117.31723 | 1616 ft | 172 kts | 158° |
| 2026-04-24 04:51 | 39.20496 | 117.32361 | 1396 ft | 157 kts | 158° |
| 2026-04-24 04:51 | 39.19565 | 117.32934 | 1191 ft | 142 kts | 158° |
| 2026-04-24 04:51 | 39.18684 | 117.33475 | 1001 ft | 137 kts | 158° |
| 2026-04-24 04:51 | 39.17819 | 117.34000 | 784 ft | 139 kts | 158° |
| 2026-04-24 04:52 | 39.16951 | 117.34536 | 665 ft | 139 kts | 159° |
| 2026-04-24 04:52 | 39.16082 | 117.35074 | 454 ft | 140 kts | 157° |
| 2026-04-24 04:52 | 39.15200 | 117.35616 | 298 ft | 141 kts | 157° |
| 2026-04-24 04:52 | 39.14316 | 117.36157 | 99 ft | 140 kts | 156° |
| 2026-04-24 04:53 | 39.13475 | 117.36674 | 26 ft | 120 kts | 156° |
| 2026-04-24 04:53 | 39.12823 | 117.37071 | 19 ft | 89 kts | 155° |
| 2026-04-24 04:53 | 39.12507 | 117.37246 | 18 ft | 25 kts | 174° |
| 2026-04-24 04:53 | 39.12338 | 117.37251 | 19 ft | 21 kts | 181° |
| 2026-04-24 04:54 | 39.12295 | 117.37172 | 19 ft | 13 kts | 290° |
| 2026-04-24 04:54 | 39.12367 | 117.37117 | 19 ft | 12 kts | 334° |
| 2026-04-24 04:54 | 39.12436 | 117.37075 | 19 ft | 10 kts | 334° |
| 2026-04-24 04:54 | 39.12495 | 117.37038 | 19 ft | 9 kts | 334° |
| 2026-04-24 04:55 | 39.12546 | 117.37006 | 20 ft | 8 kts | 333° |
| 2026-04-24 04:55 | 39.12591 | 117.36977 | 19 ft | 7 kts | 333° |
| 2026-04-24 04:55 | 39.12629 | 117.36952 | 19 ft | 6 kts | 333° |
| 2026-04-24 04:55 | 39.12661 | 117.36931 | 19 ft | 5 kts | 333° |
| 2026-04-24 04:56 | 39.12686 | 117.36914 | 19 ft | 4 kts | 332° |
| 2026-04-24 04:56 | 39.12705 | 117.36901 | 20 ft | 3 kts | 332° |
| 2026-04-24 04:56 | 39.12718 | 117.36892 | 19 ft | 2 kts | 332° |
| 2026-04-24 04:56 | 39.12727 | 117.36847 | 19 ft | 13 kts | 257° |
| 2026-04-24 04:57 | 39.12682 | 117.36722 | 19 ft | 20 kts | 244° |
| 2026-04-24 04:57 | 39.12603 | 117.36513 | 19 ft | 28 kts | 244° |
| 2026-04-24 04:57 | 39.12519 | 117.36286 | 19 ft | 28 kts | 244° |
| 2026-04-24 04:57 | 39.12432 | 117.36053 | 19 ft | 29 kts | 244° |
| 2026-04-24 04:58 | 39.12345 | 117.35820 | 19 ft | 29 kts | 244° |
| 2026-04-24 04:58 | 39.12283 | 117.35614 | 19 ft | 17 kts | 248° |
| 2026-04-24 04:58 | 39.12241 | 117.35503 | 19 ft | 12 kts | 245° |
| 2026-04-24 04:58 | 39.12209 | 117.35404 | 19 ft | 12 kts | 262° |
| 2026-04-24 04:59 | 39.12273 | 117.35376 | 19 ft | 11 kts | 2° |
| 2026-04-24 04:59 | 39.12381 | 117.35383 | 19 ft | 21 kts | 3° |
| 2026-04-24 04:59 | 39.12553 | 117.35398 | 19 ft | 26 kts | 4° |
| 2026-04-24 04:59 | 39.12664 | 117.35407 | 19 ft | 6 kts | 4° |
| 2026-04-24 05:00 | 39.12687 | 117.35384 | 20 ft | 4 kts | 283° |
| 2026-04-24 05:00 | 39.12688 | 117.35354 | 19 ft | 4 kts | 272° |
| 2026-04-24 05:00 | 39.12689 | 117.35333 | 19 ft | 0 kts | 273° |
| 2026-04-24 05:00 | 39.12689 | 117.35332 | 19 ft | 0 kts | 273° |
| 2026-04-24 05:26 | 39.12689 | 117.35333 | 19 ft | 0 kts | 273° |
| 2026-04-24 05:56 | 39.12689 | 117.35334 | 19 ft | 0 kts | 273° |